Time;durP1;ratioP1;P1;durP2;ratioP2;P2;SDS_P1;SDS_P2;PMS_P1;PMS_P2;Temp;Humidity;BMP_temperature;BMP_pressure;BME280_temperature;BME280_humidity;BME280_pressure;Samples;Min_cycle;Max_cycle;Signal;HPM_P1;HPM_P2
2024/01/07 00:01:10;;;;;;;;;10.00;6.00;;;;;6.05;75.99;101054.66;4972343;28;45604;-79
2024/01/07 00:03:35;;;;;;;;;7.00;5.75;;;;;5.93;76.41;101047.13;4973357;27;45279;-80
2024/01/07 00:06:01;;;;;;;;;5.00;5.00;;;;;6.03;75.82;101077.63;4972993;28;54865;-79
2024/01/07 00:08:26;;;;;;;;;8.00;6.00;;;;;5.84;75.74;101057.00;4973916;28;45634;-80
2024/01/07 00:10:52;;;;;;;;;3.00;3.00;;;;;5.77;76.54;101051.94;4975199;28;45315;-79
2024/01/07 00:13:17;;;;;;;;;5.00;5.00;;;;;5.84;77.09;101057.00;4976191;27;45255;-80
2024/01/07 00:15:43;;;;;;;;;6.50;4.50;;;;;5.92;76.28;101083.22;4976246;28;45461;-79
2024/01/07 00:18:08;;;;;;;;;11.00;6.00;;;;;5.87;76.14;101085.97;4991465;27;45493;-81
2024/01/07 00:20:34;;;;;;;;;5.75;3.50;;;;;5.84;77.02;101080.75;4976454;28;45564;-80
2024/01/07 00:22:59;;;;;;;;;5.25;5.25;;;;;5.75;76.89;101067.84;4976209;28;46002;-80
2024/01/07 00:25:24;;;;;;;;;5.25;5.25;;;;;5.72;77.23;101073.19;4976559;28;45214;-79
2024/01/07 00:27:51;;;;;;;;;3.00;3.00;;;;;5.82;76.60;101076.41;4975063;28;45913;-79
2024/01/07 00:30:16;;;;;;;;;2.00;2.00;;;;;5.89;77.22;101086.78;4975013;28;45427;-80
2024/01/07 00:32:42;;;;;;;;;7.00;6.00;;;;;5.88;76.38;101074.50;4975888;28;45434;-80
2024/01/07 00:35:07;;;;;;;;;5.50;3.50;;;;;5.85;76.20;101076.31;4976034;28;45397;-78
2024/01/07 00:37:34;;;;;;;;;6.00;3.50;;;;;5.87;75.96;101080.69;4976257;28;45374;-81
2024/01/07 00:40:00;;;;;;;;;3.50;3.50;;;;;5.87;75.49;101082.47;4976372;28;45379;-79
2024/01/07 00:42:26;;;;;;;;;5.75;4.00;;;;;5.78;76.19;101082.72;4976168;28;45291;-79
2024/01/07 00:44:51;;;;;;;;;7.50;6.75;;;;;5.81;76.04;101085.25;4975888;28;45445;-79
2024/01/07 00:47:16;;;;;;;;;1.00;1.00;;;;;5.77;76.03;101091.53;4976142;28;45409;-81
2024/01/07 00:49:42;;;;;;;;;6.00;6.00;;;;;5.75;75.48;101083.66;4976017;28;45671;-80
2024/01/07 00:52:07;;;;;;;;;6.00;5.00;;;;;5.75;76.37;101083.66;4975834;28;45976;-79
2024/01/07 00:54:32;;;;;;;;;4.75;4.75;;;;;5.68;76.27;101076.81;4975797;28;45301;-79
2024/01/07 00:56:58;;;;;;;;;3.75;3.75;;;;;5.71;75.29;101092.56;4976228;28;45303;-78
2024/01/07 00:59:23;;;;;;;;;3.25;3.25;;;;;5.65;75.70;101087.47;4976053;27;45592;-79
2024/01/07 01:01:48;;;;;;;;;4.50;4.50;;;;;5.66;75.82;101089.19;4974324;28;46394;-80
2024/01/07 01:04:13;;;;;;;;;5.75;5.00;;;;;5.62;75.57;101084.91;4974816;28;63741;-79
2024/01/07 01:06:39;;;;;;;;;5.25;5.25;;;;;5.66;76.14;101091.84;4974326;28;47543;-80
2024/01/07 01:09:04;;;;;;;;;14.75;12.00;;;;;5.63;75.51;101062.91;4975897;28;45565;-79
2024/01/07 01:11:29;;;;;;;;;8.00;8.00;;;;;5.77;75.39;101088.91;4975472;28;57570;-80
2024/01/07 01:13:55;;;;;;;;;6.75;3.00;;;;;5.83;74.09;101092.22;4975443;28;45306;-79
2024/01/07 01:16:20;;;;;;;;;9.50;6.25;;;;;5.73;74.96;101074.94;4975883;28;45606;-79
2024/01/07 01:18:45;;;;;;;;;7.50;6.00;;;;;5.76;73.72;101084.53;4975803;28;45434;-80
2024/01/07 01:21:12;;;;;;;;;6.00;5.00;;;;;5.71;73.57;101094.34;4974645;28;67226;-80
2024/01/07 01:23:37;;;;;;;;;6.25;3.00;;;;;5.65;73.83;101098.03;4974811;28;45357;-79
2024/01/07 01:26:05;;;;;;;;;2.00;2.00;;;;;5.58;74.05;101091.16;4975533;28;45307;-79
2024/01/07 01:28:31;;;;;;;;;5.00;2.50;;;;;5.56;74.54;101098.25;4976068;28;45558;-79
2024/01/07 01:30:56;;;;;;;;;4.50;2.00;;;;;5.57;74.25;101105.28;4975404;28;45360;-79
2024/01/07 01:33:22;;;;;;;;;2.00;0.00;;;;;5.50;73.67;101103.72;4975773;28;45251;-79
2024/01/07 01:35:47;;;;;;;;;1.00;1.00;;;;;5.36;74.88;101095.31;4976005;27;45379;-79
2024/01/07 01:38:13;;;;;;;;;3.25;1.00;;;;;5.40;73.88;101123.34;4975698;28;45663;-80
2024/01/07 01:40:38;;;;;;;;;3.25;2.00;;;;;5.44;74.30;101122.34;4975588;28;46637;-80
2024/01/07 01:43:03;;;;;;;;;2.25;2.25;;;;;5.46;74.72;101126.66;4974172;28;45350;-80
2024/01/07 01:45:29;;;;;;;;;5.00;2.75;;;;;5.40;74.05;101118.06;4975962;28;45389;-79
2024/01/07 01:47:55;;;;;;;;;3.50;3.50;;;;;5.52;74.48;101125.66;4975707;28;45242;-80
2024/01/07 01:50:22;;;;;;;;;6.00;4.00;;;;;5.53;74.03;101114.19;4976785;28;46209;-80
2024/01/07 01:52:48;;;;;;;;;1.00;1.00;;;;;5.58;73.63;101112.28;4975159;28;45485;-79
2024/01/07 01:55:14;;;;;;;;;4.50;2.00;;;;;5.62;72.99;101116.59;4975324;28;45476;-80
2024/01/07 01:57:41;;;;;;;;;4.50;2.00;;;;;5.77;72.86;101129.34;4975309;28;45325;-81
2024/01/07 02:00:08;;;;;;;;;6.00;4.50;;;;;5.61;72.65;101105.16;4974926;28;45292;-80
2024/01/07 02:02:34;;;;;;;;;3.50;1.00;;;;;5.78;73.11;101133.72;4975327;28;45819;-79
2024/01/07 02:05:03;;;;;;;;;3.50;2.00;;;;;5.79;72.57;101132.81;4975274;28;45347;-78
2024/01/07 02:07:30;;;;;;;;;5.50;5.25;;;;;5.84;73.48;101140.59;4975598;28;45444;-79
2024/01/07 02:09:56;;;;;;;;;7.25;7.25;;;;;5.89;72.62;101141.34;4974922;28;45306;-79
2024/01/07 02:12:21;;;;;;;;;3.00;3.00;;;;;5.87;71.95;101133.47;4975045;28;45262;-80
2024/01/07 02:14:46;;;;;;;;;9.50;3.00;;;;;5.91;72.15;101148.34;4974853;28;45621;-80
2024/01/07 02:17:12;;;;;;;;;3.25;2.50;;;;;5.93;71.48;101144.78;4975030;28;45588;-80
2024/01/07 02:19:37;;;;;;;;;1.00;1.00;;;;;5.96;71.82;101144.69;4974809;28;45315;-77
2024/01/07 02:22:03;;;;;;;;;5.00;1.00;;;;;5.99;71.66;101155.16;4975252;28;45388;-80
2024/01/07 02:24:30;;;;;;;;;1.00;1.00;;;;;5.99;71.03;101144.59;4973717;28;45305;-78
2024/01/07 02:26:56;;;;;;;;;4.50;2.00;;;;;6.06;70.67;101146.16;4973770;28;45818;-78
2024/01/07 02:29:21;;;;;;;;;2.00;1.00;;;;;6.00;70.38;101139.31;4973541;28;46081;-79
2024/01/07 02:31:46;;;;;;;;;2.75;1.00;;;;;5.95;70.49;101132.41;4975189;28;54510;-79
2024/01/07 02:34:12;;;;;;;;;2.50;2.00;;;;;5.97;70.09;101141.16;4974547;28;45318;-80
2024/01/07 02:36:37;;;;;;;;;0.75;0.25;;;;;5.76;70.20;101114.44;4974672;28;45567;-79
2024/01/07 02:39:02;;;;;;;;;0.75;0.75;;;;;5.90;70.78;101130.78;4974595;28;53453;-79
2024/01/07 02:41:28;;;;;;;;;2.25;1.50;;;;;5.84;70.36;101141.44;4974647;28;45440;-79
2024/01/07 02:43:53;;;;;;;;;0.00;0.00;;;;;5.88;71.20;101147.53;4974892;28;45309;-81
2024/01/07 02:46:20;;;;;;;;;1.25;1.25;;;;;5.76;70.78;101132.91;4973720;28;45522;-80
2024/01/07 02:48:45;;;;;;;;;3.25;1.00;;;;;5.71;71.08;101126.88;4974613;28;45531;-81
2024/01/07 02:51:10;;;;;;;;;1.00;1.00;;;;;5.69;70.90;101136.59;4974172;28;53891;-78
2024/01/07 02:53:35;;;;;;;;;2.50;1.00;;;;;5.65;70.88;101150.78;4974975;28;45364;-80
2024/01/07 02:56:01;;;;;;;;;2.00;2.00;;;;;5.44;71.84;101124.97;4973802;28;59945;-79
2024/01/07 02:58:26;;;;;;;;;2.00;2.00;;;;;5.51;72.12;101143.25;4974240;28;48533;-80
2024/01/07 03:00:51;;;;;;;;;1.50;1.00;;;;;5.50;71.81;101148.56;4974398;27;45432;-79
2024/01/07 03:03:17;;;;;;;;;0.25;0.25;;;;;5.52;72.02;101155.53;4974612;28;45182;-80
2024/01/07 03:05:42;;;;;;;;;9.25;3.25;;;;;5.49;71.70;101144.19;4973507;28;45511;-79
2024/01/07 03:08:07;;;;;;;;;1.75;1.00;;;;;5.49;71.87;101150.34;4973263;28;48161;-77
2024/01/07 03:10:33;;;;;;;;;6.25;2.25;;;;;5.42;70.51;101154.03;4973991;28;58417;-80
2024/01/07 03:12:59;;;;;;;;;2.75;2.75;;;;;5.45;71.01;101167.13;4974558;28;45394;-80
2024/01/07 03:15:24;;;;;;;;;1.75;1.00;;;;;5.40;71.59;101162.91;4974871;28;45238;-78
2024/01/07 03:17:50;;;;;;;;;3.25;2.00;;;;;5.42;71.54;101161.09;4973588;28;58570;-78
2024/01/07 03:20:15;;;;;;;;;2.00;2.00;;;;;5.40;70.57;101157.63;4974230;28;45282;-79
2024/01/07 03:22:40;;;;;;;;;3.25;2.00;;;;;5.35;71.61;101154.25;4974025;28;45460;-78
2024/01/07 03:25:06;;;;;;;;;1.50;1.50;;;;;5.31;71.49;101151.66;4974517;28;45557;-79
2024/01/07 03:27:32;;;;;;;;;1.75;1.75;;;;;5.24;70.76;101157.16;4973835;28;45444;-79
2024/01/07 03:29:57;;;;;;;;;3.25;2.00;;;;;5.16;71.35;101149.41;4973657;27;45352;-79
2024/01/07 03:32:22;;;;;;;;;3.25;2.75;;;;;5.05;71.05;101148.81;4973788;28;46303;-79
2024/01/07 03:34:48;;;;;;;;;2.00;1.00;;;;;5.02;71.03;101144.50;4974170;28;45391;-78
2024/01/07 03:37:13;;;;;;;;;2.00;2.00;;;;;5.19;71.62;101161.66;4988900;27;48172;-79
2024/01/07 03:39:38;;;;;;;;;2.75;1.00;;;;;5.18;70.71;101166.06;4974101;28;45432;-79
2024/01/07 03:42:05;;;;;;;;;1.00;1.00;;;;;4.96;70.66;101118.28;4974029;28;45324;-79
2024/01/07 03:44:31;;;;;;;;;2.75;1.00;;;;;5.20;70.78;101163.38;4974467;28;45541;-79
2024/01/07 03:46:56;;;;;;;;;5.00;2.00;;;;;5.14;70.10;101148.59;4979773;28;46160;-79
2024/01/07 03:49:21;;;;;;;;;1.25;1.25;;;;;5.22;70.10;101165.09;4979869;28;51483;-79
2024/01/07 03:51:47;;;;;;;;;2.00;2.00;;;;;5.16;70.33;101157.31;4980198;28;45287;-79
2024/01/07 03:54:12;;;;;;;;;4.25;2.00;;;;;5.14;70.17;101151.22;4980452;28;45318;-79
2024/01/07 03:56:37;;;;;;;;;1.00;1.00;;;;;5.27;69.71;101165.84;4980659;28;45379;-80
2024/01/07 03:59:02;;;;;;;;;1.00;1.00;;;;;5.30;70.22;101171.03;4979442;28;64593;-80
2024/01/07 04:01:28;;;;;;;;;1.75;1.75;;;;;5.22;70.03;101162.47;4979850;28;51390;-78
2024/01/07 04:03:53;;;;;;;;;1.75;1.75;;;;;5.31;69.85;101178.03;4979488;28;61039;-80
2024/01/07 04:06:18;;;;;;;;;1.00;1.00;;;;;5.29;69.57;101176.34;4980062;28;56139;-80
2024/01/07 04:08:44;;;;;;;;;2.25;1.25;;;;;5.30;69.88;101176.31;4980132;28;45435;-80
2024/01/07 04:11:09;;;;;;;;;2.00;2.00;;;;;5.02;69.72;101123.41;4996421;27;45329;-80
2024/01/07 04:13:34;;;;;;;;;4.50;2.00;;;;;5.30;69.57;101176.31;4980923;28;45955;-79
2024/01/07 04:16:02;;;;;;;;;1.00;1.00;;;;;5.20;69.91;101177.44;4980456;28;45431;-80
2024/01/07 04:18:28;;;;;;;;;2.00;2.00;;;;;5.13;69.24;101172.38;4979920;28;45467;-79
2024/01/07 04:20:53;;;;;;;;;2.00;2.00;;;;;5.14;69.71;101179.38;4979319;28;56701;-79
2024/01/07 04:23:18;;;;;;;;;4.50;2.00;;;;;5.20;70.18;101184.47;4980057;28;45342;-80
2024/01/07 04:25:45;;;;;;;;;2.00;0.00;;;;;5.18;69.46;101171.34;4979729;28;45929;-79
2024/01/07 04:28:10;;;;;;;;;1.25;1.25;;;;;5.29;70.08;101184.25;4979965;28;45433;-79
2024/01/07 04:30:36;;;;;;;;;1.25;1.25;;;;;5.29;69.76;101185.13;4979524;28;45428;-79
2024/01/07 04:33:01;;;;;;;;;3.50;1.50;;;;;5.26;69.20;101190.47;4979147;28;55810;-79
2024/01/07 04:35:26;;;;;;;;;1.50;1.00;;;;;5.20;69.16;101187.97;4979140;28;56431;-80
2024/01/07 04:37:52;;;;;;;;;2.75;1.50;;;;;5.17;69.23;101184.56;4979484;28;45346;-81
2024/01/07 04:40:17;;;;;;;;;3.75;2.00;;;;;5.13;70.26;101191.69;4979028;28;59032;-79
2024/01/07 04:42:42;;;;;;;;;3.25;1.50;;;;;5.10;70.32;101189.13;4982097;28;45244;-81
2024/01/07 04:45:07;;;;;;;;;3.00;1.75;;;;;5.08;69.86;101195.31;4982119;28;51928;-79
2024/01/07 04:47:36;;;;;;;;;2.00;2.00;;;;;5.04;69.54;101184.84;4979719;28;45387;-80
2024/01/07 04:50:03;;;;;;;;;1.00;1.00;;;;;4.93;70.20;101180.72;4979581;28;45354;-79
2024/01/07 04:52:29;;;;;;;;;0.00;0.00;;;;;4.89;70.38;101184.34;4979703;28;45393;-80
2024/01/07 04:54:55;;;;;;;;;1.50;1.50;;;;;4.95;70.26;101194.78;4978932;28;46007;-80
2024/01/07 04:57:21;;;;;;;;;0.50;0.50;;;;;5.04;70.68;101194.53;4976898;28;45476;-79
2024/01/07 04:59:48;;;;;;;;;1.25;1.25;;;;;5.07;69.43;101189.19;4975880;28;45242;-79
2024/01/07 05:02:13;;;;;;;;;1.00;1.00;;;;;5.11;69.79;101200.53;4976381;28;45317;-79
2024/01/07 05:04:39;;;;;;;;;1.00;1.00;;;;;5.06;70.35;101194.50;4975753;28;45918;-80
2024/01/07 05:07:05;;;;;;;;;4.50;4.50;;;;;5.06;70.04;101195.34;4975805;28;45283;-79
2024/01/07 05:09:31;;;;;;;;;4.00;4.00;;;;;4.99;69.74;101185.88;4975803;28;45160;-80
2024/01/07 05:11:56;;;;;;;;;3.50;3.50;;;;;5.12;69.85;101203.13;4974711;28;45613;-79
2024/01/07 05:14:22;;;;;;;;;5.50;4.00;;;;;5.17;69.62;101205.66;4975719;27;46425;-80
2024/01/07 05:16:48;;;;;;;;;4.00;3.50;;;;;5.16;70.24;101188.97;4976131;28;45368;-80
2024/01/07 05:19:13;;;;;;;;;2.00;2.00;;;;;5.15;69.38;101181.97;4976011;28;45428;-79
2024/01/07 05:21:38;;;;;;;;;4.75;4.50;;;;;5.27;70.46;101202.75;4975673;28;45317;-79
2024/01/07 05:24:04;;;;;;;;;5.00;2.25;;;;;5.37;68.77;101207.81;4973729;28;56077;-79
2024/01/07 05:26:29;;;;;;;;;3.50;3.50;;;;;5.23;69.24;101185.28;4975505;28;45331;-78
2024/01/07 05:28:55;;;;;;;;;3.50;3.50;;;;;5.32;69.16;101198.22;4975497;28;45383;-79
2024/01/07 05:31:20;;;;;;;;;3.00;1.00;;;;;5.33;69.79;101207.88;4975288;28;45814;-79
2024/01/07 05:33:46;;;;;;;;;3.25;3.25;;;;;5.31;69.66;101209.69;4975528;28;45801;-79
2024/01/07 05:36:12;;;;;;;;;1.75;1.25;;;;;5.24;69.19;101197.56;4975867;28;45380;-79
2024/01/07 05:38:37;;;;;;;;;5.00;2.50;;;;;5.22;70.50;101206.44;4975607;28;45370;-78
2024/01/07 05:41:03;;;;;;;;;3.00;3.00;;;;;5.29;69.31;101215.91;4974393;28;45300;-79
2024/01/07 05:43:28;;;;;;;;;10.00;4.75;;;;;5.23;69.54;101210.78;4975029;27;45264;-79
2024/01/07 05:45:53;;;;;;;;;4.50;2.75;;;;;5.29;69.67;101226.47;4975312;27;45323;-80
2024/01/07 05:48:21;;;;;;;;;3.00;1.00;;;;;5.23;69.50;101224.84;4975368;28;45308;-80
2024/01/07 05:50:47;;;;;;;;;6.00;3.50;;;;;5.25;70.45;101208.97;4975675;28;45443;-79
2024/01/07 05:53:12;;;;;;;;;2.25;2.00;;;;;5.22;70.58;101215.22;4975456;28;45638;-80
2024/01/07 05:55:38;;;;;;;;;6.25;4.50;;;;;5.22;71.21;101225.75;4973775;28;45410;-79
2024/01/07 05:58:03;;;;;;;;;1.50;1.50;;;;;5.17;70.89;101217.06;4975195;28;45330;-80
2024/01/07 06:00:29;;;;;;;;;2.00;2.00;;;;;5.19;70.57;101220.53;4975440;28;45452;-80
2024/01/07 06:02:54;;;;;;;;;1.75;1.75;;;;;5.20;70.83;101234.56;4975148;28;52906;-79
2024/01/07 06:05:19;;;;;;;;;4.00;1.50;;;;;5.19;71.19;101231.06;4990053;27;45536;-80
2024/01/07 06:07:45;;;;;;;;;6.00;4.00;;;;;5.03;70.82;101208.63;4974693;28;45444;-79
2024/01/07 06:10:10;;;;;;;;;2.75;2.50;;;;;5.01;71.62;101215.69;4975302;28;45433;-79
2024/01/07 06:12:35;;;;;;;;;3.00;3.00;;;;;5.16;71.33;101239.06;4974785;28;45373;-78
2024/01/07 06:15:00;;;;;;;;;4.00;3.50;;;;;5.14;71.77;101242.66;4974812;28;45406;-80
2024/01/07 06:17:26;;;;;;;;;1.50;1.50;;;;;5.04;72.20;101232.31;4974422;28;52840;-79
2024/01/07 06:19:51;;;;;;;;;4.75;2.00;;;;;5.08;71.95;101230.50;4975074;28;45438;-77
2024/01/07 06:22:16;;;;;;;;;1.75;1.75;;;;;5.14;72.71;101242.66;4975083;28;45924;-79
2024/01/07 06:24:42;;;;;;;;;2.00;2.00;;;;;4.98;72.68;101216.66;4974756;28;45276;-79
2024/01/07 06:27:07;;;;;;;;;2.00;2.00;;;;;4.99;72.24;101225.41;4974890;28;45389;-78
2024/01/07 06:29:33;;;;;;;;;1.00;1.00;;;;;5.03;72.27;101232.34;4974996;28;45519;-80
2024/01/07 06:32:03;;;;;;;;;1.00;1.00;;;;;4.97;73.82;101241.28;4974660;28;45350;-80
2024/01/07 06:34:28;;;;;;;;;2.00;2.00;;;;;4.79;73.35;101203.91;4974703;28;45365;-79
2024/01/07 06:36:58;;;;;;;;;5.25;2.00;;;;;4.93;74.04;101233.44;4975042;28;45427;-81
2024/01/07 06:39:26;;;;;;;;;4.75;4.00;;;;;4.97;73.88;101243.03;4975742;27;45223;-78
2024/01/07 06:41:52;;;;;;;;;3.25;3.25;;;;;5.01;74.14;101248.19;4974729;28;45471;-80
2024/01/07 06:44:17;;;;;;;;;1.50;1.50;;;;;4.81;73.76;101220.53;4974806;28;45404;-80
2024/01/07 06:46:46;;;;;;;;;8.00;4.50;;;;;4.90;73.76;101244.06;4974690;28;45332;-80
2024/01/07 06:49:11;;;;;;;;;2.00;2.00;;;;;4.84;74.41;101233.69;4974669;28;45322;-80
2024/01/07 06:51:37;;;;;;;;;5.25;1.50;;;;;4.89;74.55;101247.59;4974520;28;45325;-80
2024/01/07 06:54:03;;;;;;;;;2.00;2.00;;;;;4.89;75.13;101253.75;4974593;28;45183;-80
2024/01/07 06:56:28;;;;;;;;;3.25;1.00;;;;;4.88;74.87;101264.31;4974437;27;45220;-80
2024/01/07 06:58:53;;;;;;;;;1.25;1.25;;;;;4.88;75.11;101264.31;4975548;28;45338;-79
2024/01/07 07:01:23;;;;;;;;;3.75;3.75;;;;;4.87;74.62;101265.22;4974886;27;45302;-79
2024/01/07 07:03:49;;;;;;;;;4.00;2.00;;;;;4.94;75.35;101266.81;4974575;28;45288;-80
2024/01/07 07:06:14;;;;;;;;;4.25;2.00;;;;;4.96;74.96;101270.31;4974317;28;45397;-78
2024/01/07 07:08:40;;;;;;;;;3.50;1.00;;;;;4.86;74.95;101261.72;4974387;28;45417;-79
2024/01/07 07:11:05;;;;;;;;;2.75;2.75;;;;;4.79;75.62;101261.88;4974207;28;45364;-80
2024/01/07 07:13:31;;;;;;;;;3.25;2.25;;;;;4.76;75.73;101269.84;4974427;28;45276;-80
2024/01/07 07:15:56;;;;;;;;;1.25;1.25;;;;;4.76;75.35;101275.13;4974481;28;45460;-79
2024/01/07 07:18:21;;;;;;;;;4.75;3.25;;;;;4.65;75.55;101265.69;4975153;28;45262;-79
2024/01/07 07:20:47;;;;;;;;;4.25;4.25;;;;;4.74;75.54;101283.06;4974084;28;45205;-80
2024/01/07 07:23:13;;;;;;;;;3.75;3.75;;;;;4.78;75.40;101286.50;4974465;28;45764;-79
2024/01/07 07:25:39;;;;;;;;;4.75;4.75;;;;;4.84;75.02;101291.66;4974135;28;45234;-79
2024/01/07 07:28:04;;;;;;;;;6.00;2.00;;;;;4.86;74.66;101296.00;4974111;27;45272;-79
2024/01/07 07:30:30;;;;;;;;;6.00;4.25;;;;;4.90;74.29;101292.38;4973795;28;45304;-79
2024/01/07 07:32:55;;;;;;;;;5.00;5.00;;;;;4.91;74.79;101303.78;4973943;28;45357;-79
2024/01/07 07:35:20;;;;;;;;;4.00;4.00;;;;;4.98;74.16;101303.63;4972746;28;52502;-79
2024/01/07 07:37:46;;;;;;;;;7.50;5.00;;;;;4.86;73.37;101268.75;4974240;28;45739;-79
2024/01/07 07:40:12;;;;;;;;;8.75;6.00;;;;;5.08;72.50;101298.13;4974276;28;46140;-78
2024/01/07 07:42:38;;;;;;;;;6.00;4.50;;;;;4.92;72.06;101277.38;4973913;28;45392;-78
2024/01/07 07:45:04;;;;;;;;;5.00;5.00;;;;;5.09;71.55;101300.78;4973967;28;45460;-79
2024/01/07 07:47:30;;;;;;;;;5.50;3.00;;;;;5.11;71.08;101301.59;4972777;28;45344;-80
2024/01/07 07:49:55;;;;;;;;;9.75;6.50;;;;;4.97;71.13;101267.63;4988581;27;46101;-79
2024/01/07 07:52:25;;;;;;;;;7.25;5.75;;;;;5.07;70.96;101294.63;4973933;28;45339;-79
2024/01/07 07:54:51;;;;;;;;;6.00;6.00;;;;;5.04;70.37;101305.25;4974004;28;45387;-79
2024/01/07 07:57:17;;;;;;;;;4.50;4.00;;;;;5.02;70.46;101301.78;4972597;28;45477;-79
2024/01/07 07:59:42;;;;;;;;;6.00;4.75;;;;;5.06;70.25;101302.56;4972140;28;46880;-79
2024/01/07 08:02:07;;;;;;;;;6.75;4.75;;;;;4.96;69.28;101305.44;4973201;28;51546;-79
2024/01/07 08:04:33;;;;;;;;;5.25;5.25;;;;;4.83;69.29;101300.47;4973631;28;45405;-79
2024/01/07 08:07:00;;;;;;;;;10.50;8.75;;;;;4.83;69.73;101318.91;4972457;28;45531;-80
2024/01/07 08:09:26;;;;;;;;;6.50;5.00;;;;;4.86;69.02;101321.47;4973254;28;46120;-80
2024/01/07 08:11:51;;;;;;;;;8.75;6.00;;;;;4.84;69.89;101328.56;4973703;28;45341;-81
2024/01/07 08:14:16;;;;;;;;;12.00;8.00;;;;;4.77;69.43;101316.38;4973314;28;45311;-79
2024/01/07 08:16:42;;;;;;;;;8.25;6.75;;;;;4.84;69.36;101334.69;4973766;28;45387;-79
2024/01/07 08:19:07;;;;;;;;;8.00;6.00;;;;;4.90;68.50;101333.69;4973250;28;45999;-82
2024/01/07 08:21:32;;;;;;;;;8.50;6.00;;;;;4.98;69.30;101342.31;4973204;28;45286;-79
2024/01/07 08:23:58;;;;;;;;;4.50;4.50;;;;;5.03;68.29;101340.44;4973206;28;45359;-78
2024/01/07 08:26:24;;;;;;;;;5.50;5.50;;;;;5.11;68.76;101343.78;4974276;28;45562;-79
2024/01/07 08:28:49;;;;;;;;;6.00;5.50;;;;;5.16;68.55;101347.19;4973315;27;45245;-79
2024/01/07 08:31:14;;;;;;;;;4.50;4.50;;;;;5.18;68.36;101355.06;4973736;28;45296;-80
2024/01/07 08:33:40;;;;;;;;;9.50;5.50;;;;;5.18;67.84;101340.09;4976413;27;45363;-81
2024/01/07 08:36:05;;;;;;;;;7.25;7.25;;;;;5.08;68.14;101322.75;4976430;28;45555;-79
2024/01/07 08:38:31;;;;;;;;;6.25;6.25;;;;;5.14;68.84;101330.53;4976286;28;45528;-78
2024/01/07 08:40:56;;;;;;;;;5.00;5.00;;;;;5.17;67.77;101341.00;4976004;28;50880;-80
2024/01/07 08:43:22;;;;;;;;;7.00;7.00;;;;;5.19;67.58;101346.22;4976438;27;45346;-81
2024/01/07 08:45:47;;;;;;;;;8.50;8.50;;;;;5.21;68.16;101355.88;4976307;28;45493;-80
2024/01/07 08:48:13;;;;;;;;;5.00;5.00;;;;;5.14;67.09;101342.84;4976026;28;45523;-81
2024/01/07 08:50:38;;;;;;;;;6.50;5.00;;;;;5.20;67.54;101346.19;4975984;28;45282;-80
2024/01/07 08:53:04;;;;;;;;;6.75;6.50;;;;;5.26;66.82;101348.72;4975970;28;45427;-80
2024/01/07 08:55:30;;;;;;;;;6.00;5.00;;;;;5.20;67.25;101347.97;4974808;28;45490;-80
2024/01/07 08:57:55;;;;;;;;;9.00;5.25;;;;;5.29;66.26;101359.19;4975976;28;45395;-80
2024/01/07 09:00:26;;;;;;;;;6.75;6.75;;;;;5.27;67.48;101353.09;4975848;28;45397;-80
2024/01/07 09:02:52;;;;;;;;;7.50;7.50;;;;;5.35;66.71;101352.94;4976256;28;45621;-81
2024/01/07 09:05:18;;;;;;;;;6.50;6.50;;;;;5.24;66.79;101347.88;4976019;28;45421;-80
2024/01/07 09:07:43;;;;;;;;;7.00;6.00;;;;;5.32;66.33;101356.47;4975621;28;46325;-79
2024/01/07 09:10:13;;;;;;;;;8.00;6.75;;;;;5.41;66.31;101355.41;4975572;28;45400;-80
2024/01/07 09:12:39;;;;;;;;;8.75;7.50;;;;;5.44;65.70;101357.09;4975829;28;45369;-81
2024/01/07 09:15:07;;;;;;;;;10.00;8.00;;;;;5.42;65.58;101351.88;4975793;28;45246;-81
2024/01/07 09:17:33;;;;;;;;;9.75;7.25;;;;;5.50;65.93;101362.25;4975797;28;45456;-81
2024/01/07 09:20:10;;;;;;;;;11.75;11.50;;;;;5.44;65.35;101357.09;4975849;28;45391;-79
2024/01/07 09:22:36;;;;;;;;;12.00;11.25;;;;;5.46;65.17;101356.16;4975609;28;45428;-80
2024/01/07 09:25:05;;;;;;;;;5.75;5.25;;;;;5.38;64.76;101351.97;4975911;27;45628;-79
2024/01/07 09:27:31;;;;;;;;;9.25;9.25;;;;;5.37;63.10;101372.22;4975449;28;46406;-79
2024/01/07 09:29:56;;;;;;;;;15.00;12.75;;;;;5.28;64.27;101362.72;4975541;28;45299;-80
2024/01/07 09:32:22;;;;;;;;;11.25;11.25;;;;;5.38;64.23;101375.72;4975675;27;45362;-81
2024/01/07 09:34:47;;;;;;;;;15.25;12.75;;;;;5.39;63.57;101380.97;4975398;28;45598;-82
2024/01/07 09:37:12;;;;;;;;;13.00;9.25;;;;;5.37;63.08;101371.34;4974415;28;68387;-79
2024/01/07 09:39:41;;;;;;;;;11.50;10.00;;;;;5.31;63.43;101378.47;4974672;28;61006;-80
2024/01/07 09:42:13;;;;;;;;;9.50;9.50;;;;;5.34;64.15;101388.13;4975588;28;45448;-78
2024/01/07 09:44:39;;;;;;;;;18.00;13.75;;;;;5.41;63.65;101388.84;4974704;28;45411;-81
2024/01/07 09:47:07;;;;;;;;;15.00;14.00;;;;;5.42;63.77;101393.22;4974990;28;46175;-80
2024/01/07 09:49:32;;;;;;;;;13.50;11.50;;;;;5.46;63.70;101392.22;4975131;28;45274;-80
2024/01/07 09:52:03;;;;;;;;;13.75;13.00;;;;;5.41;63.54;101388.84;4975368;28;45333;-80
2024/01/07 09:54:29;;;;;;;;;15.00;13.00;;;;;5.46;63.09;101392.22;4975853;28;45370;-79
2024/01/07 09:57:00;;;;;;;;;16.00;12.50;;;;;5.44;64.35;101380.84;4990043;28;46255;-78
2024/01/07 09:59:28;;;;;;;;;4.75;4.75;;;;;5.42;62.85;101369.47;4975189;28;45354;-80
2024/01/07 10:01:53;;;;;;;;;13.00;12.75;;;;;5.53;63.20;101399.13;4975126;28;45460;-78
2024/01/07 10:04:19;;;;;;;;;19.50;17.50;;;;;5.65;64.81;101396.22;4975193;28;45367;-79
2024/01/07 10:06:45;;;;;;;;;10.00;10.00;;;;;5.66;63.43;101376.84;4974384;28;65067;-79
2024/01/07 10:09:12;;;;;;;;;11.75;10.00;;;;;5.59;62.85;101381.38;4974828;28;45473;-80
2024/01/07 10:11:38;;;;;;;;;14.25;14.00;;;;;5.58;62.75;101373.50;4974951;28;45363;-80
2024/01/07 10:14:04;;;;;;;;;13.75;13.00;;;;;5.71;63.56;101396.06;4975027;28;45409;-80
2024/01/07 10:16:30;;;;;;;;;16.75;13.00;;;;;5.75;62.49;101410.06;4974856;28;45433;-80
2024/01/07 10:18:55;;;;;;;;;15.50;12.50;;;;;5.68;62.91;101403.19;4974843;27;45357;-80
2024/01/07 10:21:20;;;;;;;;;14.25;13.50;;;;;5.56;62.48;101385.84;4975117;28;45707;-80
2024/01/07 10:23:46;;;;;;;;;14.50;13.00;;;;;5.39;63.13;101361.63;4975088;28;45472;-79
2024/01/07 10:26:12;;;;;;;;;13.50;13.50;;;;;5.61;63.38;101410.38;4974390;28;45447;-79
2024/01/07 10:28:37;;;;;;;;;14.75;14.00;;;;;5.66;63.53;101405.84;4973511;28;45527;-82
2024/01/07 10:31:03;;;;;;;;;16.50;10.75;;;;;5.69;63.43;101410.19;4975666;28;45735;-82
2024/01/07 10:33:33;;;;;;;;;13.25;13.25;;;;;5.66;62.67;101405.84;4975690;27;45372;-80
2024/01/07 10:36:05;;;;;;;;;17.25;16.75;;;;;5.61;62.35;101407.75;4976715;27;45283;-81
2024/01/07 10:38:33;;;;;;;;;15.50;13.75;;;;;5.57;63.60;101408.69;4974561;28;46107;-82
2024/01/07 10:40:59;;;;;;;;;19.75;16.00;;;;;5.59;63.59;101398.97;5058732;28;45939;-80
2024/01/07 10:43:28;;;;;;;;;13.75;10.50;;;;;5.64;63.44;101415.59;4975108;28;45296;-80
2024/01/07 10:45:55;;;;;;;;;23.75;15.50;;;;;5.58;63.71;101403.38;4974710;28;45374;-79
2024/01/07 10:48:21;;;;;;;;;20.25;16.50;;;;;5.62;62.96;101414.75;4974558;28;45420;-80
2024/01/07 10:50:50;;;;;;;;;22.00;15.00;;;;;5.61;63.84;101419.16;4974540;27;45365;-80
2024/01/07 10:53:20;;;;;;;;;12.25;11.75;;;;;5.62;63.01;101414.75;4974793;28;45197;-80
2024/01/07 10:56:07;;;;;;;;;17.50;15.00;;;;;5.57;63.14;101416.59;4974336;28;45926;-83
2024/01/07 10:58:36;;;;;;;;;19.75;14.00;;;;;5.53;63.90;101420.22;4989366;28;45298;-81
2024/01/07 11:01:03;;;;;;;;;13.00;11.25;;;;;5.36;63.67;101381.03;4975152;27;45224;-82
2024/01/07 11:03:45;;;;;;;;;13.00;13.00;;;;;5.59;63.71;101409.53;4974909;28;45558;-80
2024/01/07 11:06:25;;;;;;;;;13.75;13.75;;;;;5.61;64.08;101410.38;4974652;28;45386;-80
2024/01/07 11:09:03;;;;;;;;;13.75;13.75;;;;;5.70;63.35;101415.44;4974709;28;45511;-80
2024/01/07 11:11:37;;;;;;;;;20.00;18.50;;;;;5.72;63.33;101413.63;4975335;28;45320;-82
2024/01/07 11:14:03;;;;;;;;;27.75;22.75;;;;;5.71;63.16;101411.03;4975263;28;45442;-82
2024/01/07 11:16:54;;;;;;;;;22.25;18.25;;;;;5.66;63.49;101421.69;4975422;28;47470;-81
2024/01/07 11:19:20;;;;;;;;;23.75;17.00;;;;;5.57;63.99;101416.59;4977492;27;45322;-79
2024/01/07 11:21:45;;;;;;;;;21.75;19.25;;;;;5.53;64.43;101417.59;4974221;28;45441;-80
2024/01/07 11:24:41;;;;;;;;;29.25;20.25;;;;;5.56;64.34;101417.53;4974387;28;45593;-78